createdAt,value
2022-10-17T00:00:11.819Z,15.63
2022-10-17T00:02:38.627Z,14.98
2022-10-17T00:05:05.809Z,15.73
2022-10-17T00:07:32.757Z,12.18
2022-10-17T00:10:00.915Z,13.60
2022-10-17T00:12:27.790Z,14.25
2022-10-17T00:14:54.615Z,25.85
2022-10-17T00:17:21.397Z,15.93
2022-10-17T00:19:48.185Z,13.75
2022-10-17T00:22:15.106Z,19.08
2022-10-17T00:24:41.896Z,14.60
2022-10-17T00:27:10.022Z,14.00
2022-10-17T00:29:36.789Z,11.73
2022-10-17T00:32:03.594Z,8.88
2022-10-17T00:34:31.139Z,13.00
2022-10-17T00:36:57.992Z,16.83
2022-10-17T00:39:24.882Z,22.73
2022-10-17T00:41:51.638Z,10.60
2022-10-17T00:44:59.515Z,17.38
2022-10-17T00:47:26.555Z,10.60
2022-10-17T00:49:53.417Z,16.88
2022-10-17T00:52:25.206Z,16.30
2022-10-17T00:54:56.556Z,20.88
2022-10-17T00:57:23.706Z,11.77
2022-10-17T00:59:52.893Z,12.93
2022-10-17T01:02:22.341Z,10.95
2022-10-17T01:04:51.894Z,14.43
2022-10-17T01:07:18.791Z,16.92
2022-10-17T01:09:47.234Z,10.25
2022-10-17T01:12:21.252Z,12.52
2022-10-17T01:15:02.921Z,14.02
2022-10-17T01:17:38.155Z,13.68
2022-10-17T01:20:53.223Z,10.25
2022-10-17T01:23:37.366Z,13.20
2022-10-17T01:29:04.068Z,12.90
2022-10-17T01:31:39.104Z,13.55
2022-10-17T01:34:12.842Z,12.15
2022-10-17T01:39:17.311Z,12.60
2022-10-17T01:41:49.708Z,17.02
2022-10-17T01:44:22.118Z,11.82
2022-10-17T01:46:54.732Z,23.65
2022-10-17T01:49:26.327Z,13.02
2022-10-17T01:51:57.100Z,13.90
2022-10-17T01:54:27.838Z,13.00
2022-10-17T01:56:59.805Z,16.77
2022-10-17T01:59:34.441Z,14.82
2022-10-17T02:02:03.179Z,11.68
2022-10-17T02:04:30.116Z,14.02
2022-10-17T02:06:56.878Z,17.60
2022-10-17T02:09:25.926Z,17.13
2022-10-17T02:12:08.747Z,14.38
2022-10-17T02:14:45.650Z,16.90
2022-10-17T02:17:26.527Z,9.77
2022-10-17T02:20:03.030Z,17.40
2022-10-17T02:22:39.105Z,14.40
2022-10-17T02:25:14.322Z,12.15
2022-10-17T02:27:48.844Z,23.83
2022-10-17T02:30:23.558Z,13.07
2022-10-17T02:32:58.927Z,11.52
2022-10-17T02:35:29.569Z,10.25
2022-10-17T02:37:58.342Z,12.52
2022-10-17T02:40:27.940Z,14.32
2022-10-17T02:42:55.704Z,23.15
2022-10-17T02:45:26.381Z,13.95
2022-10-17T02:48:00.819Z,9.82
2022-10-17T02:50:37.094Z,15.50
2022-10-17T02:53:09.494Z,12.38
2022-10-17T02:55:40.945Z,13.18
2022-10-17T02:58:12.353Z,18.10
2022-10-17T03:00:40.600Z,10.98
2022-10-17T03:03:21.797Z,13.02
2022-10-17T03:05:48.697Z,12.90
2022-10-17T03:08:15.465Z,10.10
2022-10-17T03:10:42.186Z,11.30
2022-10-17T03:13:08.947Z,12.60
2022-10-17T03:15:36.070Z,13.57
2022-10-17T03:18:02.925Z,16.23
2022-10-17T03:20:31.073Z,11.63
2022-10-17T03:22:57.881Z,14.57
2022-10-17T03:25:24.876Z,9.68
2022-10-17T03:27:51.772Z,10.13
2022-10-17T03:30:18.627Z,12.93
2022-10-17T03:32:45.401Z,10.32
2022-10-17T03:35:15.046Z,13.52
2022-10-17T03:37:43.389Z,13.85
2022-10-17T03:40:11.043Z,8.68
2022-10-17T03:42:37.812Z,8.95
2022-10-17T03:45:05.771Z,13.25
2022-10-17T03:47:32.862Z,18.40
2022-10-17T03:49:59.814Z,12.52
2022-10-17T03:52:26.586Z,14.77
2022-10-17T03:54:54.839Z,10.02
2022-10-17T03:57:21.605Z,15.25
2022-10-17T03:59:50.603Z,9.95
2022-10-17T04:02:17.532Z,9.25
2022-10-17T04:04:44.438Z,12.18
2022-10-17T04:07:11.229Z,9.38
2022-10-17T04:09:38.078Z,9.27
2022-10-17T04:12:06.459Z,8.50
2022-10-17T04:14:33.282Z,13.40
2022-10-17T04:17:00.044Z,14.13
2022-10-17T04:19:26.856Z,11.63
2022-10-17T04:21:53.639Z,9.98
2022-10-17T04:24:20.952Z,10.82
2022-10-17T04:26:50.081Z,14.82
2022-10-17T04:29:18.254Z,10.55
2022-10-17T04:31:45.034Z,14.88
2022-10-17T04:34:14.179Z,11.57
2022-10-17T04:36:41.178Z,14.45
2022-10-17T04:39:08.074Z,9.80
2022-10-17T04:41:34.920Z,12.98
2022-10-17T04:44:01.774Z,8.27
2022-10-17T04:46:30.124Z,11.98
2022-10-17T04:48:57.361Z,18.90
2022-10-17T04:51:26.512Z,10.02
2022-10-17T04:53:53.589Z,15.85
2022-10-17T04:56:22.646Z,10.60
2022-10-17T04:58:50.453Z,12.57
2022-10-17T05:01:19.442Z,14.88
2022-10-17T05:03:48.305Z,15.55
2022-10-17T05:06:17.701Z,14.93
2022-10-17T05:08:45.202Z,12.63
2022-10-17T05:11:19.678Z,9.57
2022-10-17T05:13:50.690Z,10.25
2022-10-17T05:16:17.522Z,10.13
2022-10-17T05:18:44.349Z,11.63
2022-10-17T05:21:12.538Z,13.18
2022-10-17T05:23:39.328Z,16.55
2022-10-17T05:26:06.189Z,13.85
2022-10-17T05:28:33.968Z,14.45
2022-10-17T05:31:03.451Z,21.90
2022-10-17T05:33:30.457Z,16.05
2022-10-17T05:35:57.399Z,18.85
2022-10-17T05:38:26.217Z,13.32
2022-10-17T05:40:57.733Z,15.38
2022-10-17T05:43:24.755Z,13.52
2022-10-17T05:45:54.486Z,11.85
2022-10-17T05:48:21.917Z,20.90
2022-10-17T05:50:48.884Z,18.20
2022-10-17T05:53:16.141Z,12.55
2022-10-17T05:55:44.389Z,12.65
2022-10-17T05:58:17.720Z,12.55
2022-10-17T06:00:49.566Z,13.48
2022-10-17T06:03:16.441Z,14.77
2022-10-17T06:05:43.331Z,19.88
2022-10-17T06:08:10.050Z,21.83
2022-10-17T06:10:36.857Z,12.02
2022-10-17T06:13:05.173Z,16.67
2022-10-17T06:15:32.017Z,18.10
2022-10-17T06:17:58.836Z,14.45
2022-10-17T06:20:25.687Z,18.50
2022-10-17T06:22:52.475Z,21.13
2022-10-17T06:25:19.417Z,13.15
2022-10-17T06:27:46.421Z,20.05
2022-10-17T06:30:14.586Z,13.48
2022-10-17T06:32:41.981Z,17.70
2022-10-17T06:35:09.051Z,18.25
2022-10-17T06:37:37.130Z,11.57
2022-10-17T06:40:05.160Z,34.08
2022-10-17T06:42:32.086Z,14.45
2022-10-17T06:44:58.884Z,12.15
2022-10-17T06:47:27.286Z,30.25
2022-10-17T06:49:54.229Z,13.55
2022-10-17T06:52:21.279Z,29.00
2022-10-17T06:54:48.057Z,17.98
2022-10-17T06:57:17.485Z,19.83
2022-10-17T06:59:44.229Z,15.73
2022-10-17T07:02:11.888Z,16.48
2022-10-17T07:04:40.502Z,12.45
2022-10-17T07:07:07.307Z,12.32
2022-10-17T07:09:34.540Z,14.35
2022-10-17T07:12:01.487Z,15.63
2022-10-17T07:14:32.112Z,15.48
2022-10-17T07:16:59.475Z,16.25
2022-10-17T07:19:27.177Z,16.90
2022-10-17T07:21:55.690Z,21.63
2022-10-17T07:24:22.497Z,15.25
2022-10-17T07:26:49.431Z,16.48
2022-10-17T07:29:16.445Z,16.27
2022-10-17T07:31:45.610Z,16.80
2022-10-17T07:34:12.642Z,16.83
2022-10-17T07:36:39.640Z,14.35
2022-10-17T07:39:07.882Z,14.90
2022-10-17T07:41:34.741Z,13.70
2022-10-17T07:44:01.601Z,13.95
2022-10-17T07:46:28.408Z,13.07
2022-10-17T07:48:55.336Z,19.77
2022-10-17T07:51:22.241Z,14.00
2022-10-17T07:53:52.425Z,14.05
2022-10-17T07:56:24.618Z,19.38
2022-10-17T07:58:52.337Z,17.27
2022-10-17T08:01:19.275Z,15.90
2022-10-17T08:03:48.653Z,19.33
2022-10-17T08:06:16.352Z,18.63
2022-10-17T08:08:43.717Z,15.43
2022-10-17T08:11:13.404Z,12.38
2022-10-17T08:13:42.344Z,16.10
2022-10-17T08:16:11.788Z,20.10
2022-10-17T08:18:40.052Z,14.75
2022-10-17T08:21:11.270Z,16.27
2022-10-17T08:23:38.083Z,16.38
2022-10-17T08:26:08.187Z,17.52
2022-10-17T08:28:35.725Z,12.77
2022-10-17T08:31:05.190Z,15.88
2022-10-17T08:33:33.361Z,13.05
2022-10-17T08:36:00.402Z,14.20
2022-10-17T08:38:29.403Z,13.27
2022-10-17T08:41:01.462Z,19.92
2022-10-17T08:43:45.005Z,14.80
2022-10-17T08:48:48.066Z,12.27
2022-10-17T08:51:20.097Z,13.75
2022-10-17T08:53:53.909Z,13.57
2022-10-17T08:59:12.526Z,24.77
2022-10-17T09:01:48.464Z,23.63
2022-10-17T09:04:47.912Z,13.82
2022-10-17T09:07:21.661Z,14.48
2022-10-17T09:12:25.374Z,19.05
2022-10-17T09:15:12.499Z,21.45
2022-10-17T09:17:52.555Z,16.60
2022-10-17T09:20:22.598Z,17.15
2022-10-17T09:25:28.914Z,23.17
2022-10-17T09:28:04.443Z,21.38
2022-10-17T09:30:45.589Z,14.60
2022-10-17T09:33:28.293Z,15.32
2022-10-17T09:36:04.477Z,12.68
2022-10-17T09:38:39.204Z,17.15
2022-10-17T09:41:39.186Z,16.30
2022-10-17T09:44:13.755Z,17.40
2022-10-17T09:46:41.249Z,16.23
2022-10-17T09:49:17.573Z,18.02
2022-10-17T09:51:44.500Z,14.30
2022-10-17T09:54:20.872Z,18.27
2022-10-17T09:56:58.688Z,14.38
2022-10-17T09:59:33.705Z,18.63
2022-10-17T10:02:09.152Z,12.18
2022-10-17T10:04:59.786Z,16.35
2022-10-17T10:07:29.266Z,17.95
2022-10-17T10:09:57.238Z,12.35
2022-10-17T10:12:26.772Z,13.23
2022-10-17T10:14:55.395Z,15.23
2022-10-17T10:17:35.468Z,10.80
2022-10-17T10:20:23.967Z,14.43
2022-10-17T10:23:06.148Z,13.05
2022-10-17T10:25:33.603Z,9.85
2022-10-17T10:28:01.552Z,21.48
2022-10-17T10:30:31.433Z,13.32
2022-10-17T10:33:00.929Z,13.93
2022-10-17T10:35:33.580Z,14.00
2022-10-17T10:38:03.045Z,10.60
2022-10-17T10:40:33.425Z,10.77
2022-10-17T10:43:05.447Z,12.05
2022-10-17T10:45:48.153Z,8.82
2022-10-17T10:48:23.794Z,11.40
2022-10-17T10:50:56.301Z,7.97
2022-10-17T10:53:35.947Z,11.52
2022-10-17T10:56:10.896Z,14.10
2022-10-17T10:58:46.860Z,12.20
2022-10-17T11:01:22.287Z,13.00
2022-10-17T11:04:00.259Z,10.07
2022-10-17T11:06:34.361Z,21.20
2022-10-17T11:09:13.048Z,10.10
2022-10-17T11:11:44.570Z,12.48
2022-10-17T11:14:18.703Z,11.35
2022-10-17T11:16:51.898Z,11.77
2022-10-17T11:19:25.416Z,13.05
2022-10-17T11:22:05.468Z,16.00
2022-10-17T11:24:38.241Z,10.55
2022-10-17T11:27:07.025Z,12.32
2022-10-17T11:29:36.784Z,8.88
2022-10-17T11:32:08.492Z,11.55
2022-10-17T11:34:40.913Z,10.55
2022-10-17T11:37:16.549Z,8.85
2022-10-17T11:39:49.544Z,14.82
2022-10-17T11:42:21.797Z,8.15
2022-10-17T11:44:52.360Z,5.43
2022-10-17T11:47:31.638Z,8.65
2022-10-17T11:52:57.296Z,5.80
2022-10-17T11:55:26.183Z,8.98
2022-10-17T11:58:17.696Z,8.80
2022-10-17T12:00:55.251Z,12.75
2022-10-17T12:03:41.325Z,11.68
2022-10-17T12:06:17.197Z,15.95
2022-10-17T12:08:53.065Z,17.48
2022-10-17T12:11:34.628Z,6.30
2022-10-17T12:14:05.854Z,7.03
2022-10-17T12:16:47.853Z,7.22
2022-10-17T12:19:35.230Z,10.32
2022-10-17T12:22:19.772Z,9.60
2022-10-17T12:24:56.077Z,8.93
2022-10-17T12:27:36.333Z,6.30
2022-10-17T12:30:07.605Z,13.55
2022-10-17T12:32:53.358Z,10.65
2022-10-17T12:35:23.845Z,7.40
2022-10-17T12:38:15.187Z,8.60
2022-10-17T12:40:55.354Z,8.57
2022-10-17T12:43:47.095Z,6.45
2022-10-17T12:46:54.861Z,8.80
2022-10-17T12:49:38.262Z,7.13
2022-10-17T12:52:22.021Z,7.05
2022-10-17T12:55:07.272Z,10.80
2022-10-17T12:57:44.883Z,4.95
2022-10-17T13:00:19.997Z,4.82
2022-10-17T13:02:49.026Z,7.70
2022-10-17T13:05:22.294Z,17.25
2022-10-17T13:07:50.143Z,11.15
2022-10-17T13:10:21.598Z,10.80
2022-10-17T13:12:51.309Z,6.35
2022-10-17T13:15:20.121Z,6.45
2022-10-17T13:17:56.240Z,4.18
2022-10-17T13:20:30.598Z,6.03
2022-10-17T13:22:59.323Z,5.63
2022-10-17T13:25:27.601Z,5.18
2022-10-17T13:28:11.966Z,4.55
2022-10-17T13:30:38.759Z,4.50
2022-10-17T13:33:27.874Z,4.75
2022-10-17T13:36:00.422Z,4.97
2022-10-17T13:38:30.312Z,5.35
2022-10-17T13:41:05.909Z,6.72
2022-10-17T13:43:45.104Z,5.75
2022-10-17T13:46:36.650Z,7.95
2022-10-17T13:49:11.809Z,5.07
2022-10-17T13:51:44.336Z,6.25
2022-10-17T13:54:18.699Z,7.22
2022-10-17T13:56:56.534Z,4.05
2022-10-17T13:59:28.459Z,4.57
2022-10-17T14:01:56.022Z,4.95
2022-10-17T14:04:22.803Z,2.60
2022-10-17T14:06:52.147Z,6.03
2022-10-17T14:09:22.723Z,3.65
2022-10-17T14:12:00.076Z,3.55
2022-10-17T14:14:30.423Z,6.95
2022-10-17T14:17:01.368Z,2.17
2022-10-17T14:19:33.201Z,8.00
2022-10-17T14:22:17.515Z,3.88
2022-10-17T14:24:44.638Z,8.75
2022-10-17T14:27:26.377Z,3.20
2022-10-17T14:29:58.483Z,5.85
2022-10-17T14:32:25.477Z,4.57
2022-10-17T14:34:58.347Z,6.28
2022-10-17T14:37:43.790Z,2.95
2022-10-17T14:40:16.713Z,7.82
2022-10-17T14:42:44.775Z,11.25
2022-10-17T14:45:23.492Z,4.43
2022-10-17T14:47:51.644Z,3.90
2022-10-17T14:50:24.876Z,10.02
2022-10-17T14:53:03.792Z,4.85
2022-10-17T14:55:33.250Z,9.38
2022-10-17T14:58:00.149Z,3.40
2022-10-17T15:00:28.554Z,5.68
2022-10-17T15:02:56.217Z,4.93
2022-10-17T15:05:23.643Z,6.47
2022-10-17T15:07:50.671Z,5.22
2022-10-17T15:10:25.866Z,6.13
2022-10-17T15:12:59.271Z,5.10
2022-10-17T15:15:33.239Z,5.32
2022-10-17T15:18:00.569Z,5.85
2022-10-17T15:20:29.506Z,5.60
2022-10-17T15:22:57.597Z,4.32
2022-10-17T15:25:25.070Z,6.25
2022-10-17T15:27:52.277Z,6.20
2022-10-17T15:30:22.772Z,5.32
2022-10-17T15:32:51.572Z,6.70
2022-10-17T15:35:19.094Z,7.35
2022-10-17T15:37:49.092Z,6.63
2022-10-17T15:40:18.777Z,7.97
2022-10-17T15:42:45.586Z,6.95
2022-10-17T15:45:16.063Z,8.55
2022-10-17T15:47:49.448Z,6.93
2022-10-17T15:50:18.452Z,4.85
2022-10-17T15:52:47.080Z,15.18
2022-10-17T15:55:13.961Z,5.65
2022-10-17T15:57:44.093Z,7.00
2022-10-17T16:00:16.810Z,6.68
2022-10-17T16:02:43.971Z,14.07
2022-10-17T16:05:14.962Z,7.30
2022-10-17T16:07:43.471Z,8.02
2022-10-17T16:10:10.299Z,7.00
2022-10-17T16:12:41.264Z,7.05
2022-10-17T16:15:13.220Z,4.47
2022-10-17T16:17:40.301Z,5.07
2022-10-17T16:20:08.164Z,6.93
2022-10-17T16:22:38.134Z,8.25
2022-10-17T16:25:10.162Z,8.70
2022-10-17T16:27:38.067Z,9.02
2022-10-17T16:30:07.058Z,12.77
2022-10-17T16:32:34.197Z,8.50
2022-10-17T16:35:01.566Z,7.70
2022-10-17T16:37:28.365Z,7.10
2022-10-17T16:39:55.169Z,5.65
2022-10-17T16:42:24.951Z,9.98
2022-10-17T16:44:51.899Z,14.50
2022-10-17T16:47:19.708Z,13.05
2022-10-17T16:49:46.556Z,7.72
2022-10-17T16:52:17.078Z,7.70
2022-10-17T16:54:46.622Z,6.65
2022-10-17T16:57:13.568Z,7.05
2022-10-17T16:59:41.948Z,10.48
2022-10-17T17:02:10.392Z,14.38
2022-10-17T17:04:37.307Z,11.35
2022-10-17T17:07:04.247Z,13.35
2022-10-17T17:09:31.023Z,10.05
2022-10-17T17:11:57.767Z,6.70
2022-10-17T17:14:24.649Z,15.13
2022-10-17T17:16:53.028Z,7.55
2022-10-17T17:19:20.508Z,7.97
2022-10-17T17:21:51.059Z,8.55
2022-10-17T17:24:21.021Z,7.63
2022-10-17T17:26:51.468Z,7.75
2022-10-17T17:29:18.200Z,8.65
2022-10-17T17:31:45.006Z,16.10
2022-10-17T17:34:17.172Z,10.30
2022-10-17T17:36:45.230Z,6.13
2022-10-17T17:39:14.612Z,8.20
2022-10-17T17:41:42.493Z,10.88
2022-10-17T17:44:15.585Z,10.27
2022-10-17T17:46:43.935Z,7.00
2022-10-17T17:49:11.694Z,8.52
2022-10-17T17:51:41.616Z,9.02
2022-10-17T17:54:11.498Z,8.60
2022-10-17T17:56:39.136Z,11.50
2022-10-17T17:59:06.025Z,13.27
2022-10-17T18:01:39.035Z,9.60
2022-10-17T18:04:08.734Z,8.85
2022-10-17T18:06:36.586Z,17.88
2022-10-17T18:09:06.545Z,10.13
2022-10-17T18:11:33.794Z,13.82
2022-10-17T18:14:01.925Z,8.68
2022-10-17T18:16:30.137Z,10.15
2022-10-17T18:19:00.318Z,15.32
2022-10-17T18:21:29.358Z,13.25
2022-10-17T18:23:56.220Z,10.70
2022-10-17T18:26:24.536Z,9.18
2022-10-17T18:28:51.448Z,10.73
2022-10-17T18:31:24.006Z,14.07
2022-10-17T18:33:52.138Z,10.27
2022-10-17T18:36:19.726Z,13.13
2022-10-17T18:38:46.537Z,9.57
2022-10-17T18:41:15.500Z,13.95
2022-10-17T18:43:45.415Z,10.20
2022-10-17T18:46:15.506Z,15.32
2022-10-17T18:48:44.502Z,10.98
2022-10-17T18:51:12.156Z,9.55
2022-10-17T18:53:39.897Z,10.18
2022-10-17T18:56:06.985Z,13.18
2022-10-17T18:58:33.741Z,14.10
2022-10-17T19:01:04.156Z,13.60
2022-10-17T19:03:31.375Z,14.85
2022-10-17T19:06:01.286Z,15.88
2022-10-17T19:08:28.112Z,11.48
2022-10-17T19:10:54.836Z,13.98
2022-10-17T19:13:21.826Z,12.95
2022-10-17T19:15:48.699Z,12.05
2022-10-17T19:18:17.015Z,11.38
2022-10-17T19:20:43.861Z,9.30
2022-10-17T19:23:10.571Z,8.70
2022-10-17T19:25:37.328Z,12.05
2022-10-17T19:28:04.337Z,12.48
2022-10-17T19:30:31.141Z,13.13
2022-10-17T19:32:57.886Z,13.65
2022-10-17T19:35:26.128Z,31.17
2022-10-17T19:37:52.914Z,20.40
2022-10-17T19:40:19.721Z,16.70
2022-10-17T19:42:46.483Z,16.77
2022-10-17T19:45:13.219Z,20.85
2022-10-17T19:47:40.050Z,15.50
2022-10-17T19:50:07.920Z,14.25
2022-10-17T19:52:36.119Z,15.38
2022-10-17T19:55:02.995Z,17.45
2022-10-17T19:57:29.787Z,18.58
2022-10-17T19:59:56.933Z,14.77
2022-10-17T20:02:23.702Z,18.02
2022-10-17T20:04:59.983Z,17.27
2022-10-17T20:07:39.408Z,31.27
2022-10-17T20:10:07.133Z,14.20
2022-10-17T20:12:34.030Z,14.90
2022-10-17T20:15:00.740Z,11.93
2022-10-17T20:17:27.666Z,15.80
2022-10-17T20:19:54.440Z,22.77
2022-10-17T20:22:21.261Z,15.65
2022-10-17T20:24:49.946Z,16.85
2022-10-17T20:27:16.733Z,13.43
2022-10-17T20:29:43.775Z,14.45
2022-10-17T20:32:10.544Z,17.40
2022-10-17T20:34:37.382Z,16.23
2022-10-17T20:37:04.427Z,16.52
2022-10-17T20:39:31.268Z,11.85
2022-10-17T20:41:59.415Z,17.77
2022-10-17T20:44:26.194Z,20.33
2022-10-17T20:47:01.718Z,15.95
2022-10-17T20:49:30.478Z,18.45
2022-10-17T20:51:57.563Z,15.02
2022-10-17T20:54:24.624Z,19.15
2022-10-17T20:56:51.878Z,17.83
2022-10-17T20:59:20.619Z,23.85
2022-10-17T21:01:48.166Z,33.30
2022-10-17T21:04:44.668Z,24.88
2022-10-17T21:07:01.950Z,26.35
2022-10-17T21:09:28.752Z,20.10
2022-10-17T21:11:55.711Z,26.55
2022-10-17T21:14:25.337Z,23.02
2022-10-17T21:16:54.705Z,21.60
2022-10-17T21:19:21.909Z,21.38
2022-10-17T21:21:48.957Z,19.73
2022-10-17T21:24:18.158Z,18.38
2022-10-17T21:26:46.534Z,16.20
2022-10-17T21:29:14.337Z,18.15
2022-10-17T21:31:44.097Z,20.08
2022-10-17T21:34:13.283Z,23.20
2022-10-17T21:36:40.214Z,16.55
2022-10-17T21:41:34.723Z,19.10
2022-10-17T21:44:04.298Z,23.52
2022-10-17T21:46:31.878Z,27.92
2022-10-17T21:49:00.704Z,18.85
2022-10-17T21:51:27.700Z,18.88
2022-10-17T21:53:56.496Z,15.18
2022-10-17T21:56:30.742Z,22.95
2022-10-17T21:58:58.282Z,18.52
2022-10-17T22:01:27.696Z,21.33
2022-10-17T22:03:56.354Z,20.42
2022-10-17T22:06:39.622Z,16.95
2022-10-17T22:11:36.099Z,22.75
2022-10-17T22:14:05.239Z,19.75
2022-10-17T22:16:32.743Z,15.38
2022-10-17T22:19:04.853Z,19.73
2022-10-17T22:21:35.734Z,20.48
2022-10-17T22:24:05.782Z,19.05
2022-10-17T22:26:34.221Z,17.75
2022-10-17T22:29:02.269Z,15.45
2022-10-17T22:31:29.103Z,12.77
2022-10-17T22:33:56.196Z,22.23
2022-10-17T22:36:23.067Z,19.98
2022-10-17T22:38:51.461Z,18.58
2022-10-17T22:41:18.310Z,20.25
2022-10-17T22:43:45.134Z,22.50
2022-10-17T22:46:14.222Z,20.80
2022-10-17T22:48:41.123Z,18.67
2022-10-17T22:51:08.491Z,15.90
2022-10-17T22:53:37.318Z,26.27
2022-10-17T22:56:08.044Z,15.68
2022-10-17T22:58:36.093Z,23.25
2022-10-17T23:01:03.914Z,18.05
2022-10-17T23:03:32.233Z,21.35
2022-10-17T23:05:59.346Z,16.75
2022-10-17T23:08:27.034Z,24.48
2022-10-17T23:10:54.058Z,17.30
2022-10-17T23:13:22.345Z,18.88
2022-10-17T23:15:51.713Z,16.98
2022-10-17T23:18:18.834Z,14.38
2022-10-17T23:20:46.002Z,21.33
2022-10-17T23:23:13.093Z,17.88
2022-10-17T23:25:40.537Z,22.33
2022-10-17T23:28:08.745Z,21.15
2022-10-17T23:30:37.482Z,16.77
2022-10-17T23:33:04.942Z,17.63
2022-10-17T23:35:31.848Z,18.23
2022-10-17T23:37:58.686Z,21.60
2022-10-17T23:40:25.516Z,25.27
2022-10-17T23:42:52.275Z,16.05
2022-10-17T23:45:19.173Z,17.23
2022-10-17T23:47:47.408Z,16.92
2022-10-17T23:50:14.183Z,18.38
2022-10-17T23:52:40.922Z,18.52
2022-10-17T23:55:09.343Z,25.58
2022-10-17T23:57:36.122Z,16.70
